Time;durP1;ratioP1;P1;durP2;ratioP2;P2;SDS_P1;SDS_P2;PMS_P1;PMS_P2;Temp;Humidity;BMP_temperature;BMP_pressure;BME280_temperature;BME280_humidity;BME280_pressure;Samples;Min_cycle;Max_cycle;Signal;HPM_P1;HPM_P2
2020/12/09 00:06:38;;;;;;;21.73;14.37;;;;;;;-1.87;78.38;99355.83;516361;1098;65186;-62
2020/12/09 00:16:42;;;;;;;18.53;12.53;;;;;;;-1.79;78.73;99350.55;516239;1093;65223;-61
2020/12/09 00:26:46;;;;;;;22.17;13.03;;;;;;;-1.72;78.66;99344.42;516786;1098;65143;-61
2020/12/09 00:36:50;;;;;;;22.70;13.35;;;;;;;-1.59;78.62;99347.61;516715;1098;65147;-62
2020/12/09 00:46:55;;;;;;;20.40;12.70;;;;;;;-1.49;78.14;99346.56;517034;1098;65262;-61
2020/12/09 00:56:59;;;;;;;24.97;13.83;;;;;;;-1.38;77.86;99337.79;516983;1098;65557;-61
2020/12/09 01:07:03;;;;;;;24.27;13.30;;;;;;;-1.36;77.81;99349.77;516765;1093;65418;-61
2020/12/09 01:17:08;;;;;;;19.30;12.60;;;;;;;-1.38;77.74;99345.52;517095;1093;65179;-62
2020/12/09 01:27:11;;;;;;;21.80;11.67;;;;;;;-1.42;77.60;99343.01;517520;1098;65176;-61
2020/12/09 01:37:15;;;;;;;18.45;10.85;;;;;;;-1.45;78.01;99342.21;517217;1098;65204;-61
2020/12/09 01:47:20;;;;;;;21.87;12.57;;;;;;;-1.43;78.09;99343.02;516854;1098;65451;-62
2020/12/09 01:57:24;;;;;;;20.83;13.03;;;;;;;-1.45;78.27;99334.48;516925;1098;65274;-61
2020/12/09 02:07:30;;;;;;;18.83;11.93;;;;;;;-1.38;77.75;99348.09;517120;1098;65259;-62
2020/12/09 02:17:34;;;;;;;18.63;12.70;;;;;;;-1.34;77.47;99344.56;517094;1093;65231;-62
2020/12/09 02:27:38;;;;;;;20.83;11.10;;;;;;;-1.31;77.12;99352.27;516949;1098;65487;-62
2020/12/09 02:37:41;;;;;;;19.63;13.00;;;;;;;-1.24;78.06;99342.69;517152;1098;65181;-61
2020/12/09 02:47:45;;;;;;;21.87;12.87;;;;;;;-1.21;77.75;99343.48;517276;1093;65306;-61
2020/12/09 02:57:50;;;;;;;16.90;10.70;;;;;;;-1.23;76.89;99342.63;516921;1098;65182;-61
2020/12/09 03:07:54;;;;;;;18.33;11.77;;;;;;;-1.19;77.37;99362.33;517080;1098;65207;-62
2020/12/09 03:18:01;;;;;;;19.65;10.70;;;;;;;-1.21;76.74;99352.92;517179;1098;65252;-61
2020/12/09 03:28:05;;;;;;;25.45;11.68;;;;;;;-1.28;76.66;99339.31;517590;1098;65191;-63
2020/12/09 03:38:09;;;;;;;22.03;13.50;;;;;;;-1.27;76.76;99346.16;517329;1098;65539;-61
2020/12/09 03:58:59;;;;;;;18.23;10.88;;;;;;;-1.53;76.26;99354.38;516912;1093;65579;-61
2020/12/09 04:09:04;;;;;;;16.13;10.73;;;;;;;-1.85;76.89;99360.08;517193;1098;65587;-63
2020/12/09 04:19:10;;;;;;;22.13;13.13;;;;;;;-2.09;76.95;99388.76;517254;1098;65229;-61
2020/12/09 04:40:21;;;;;;;22.00;11.57;;;;;;;-2.52;77.08;99396.25;516971;1098;65252;-61
2020/12/09 04:50:34;;;;;;;18.60;10.05;;;;;;;-2.61;76.83;99374.06;517253;1093;65210;-61
2020/12/09 05:00:41;;;;;;;19.77;12.50;;;;;;;-2.79;76.85;99377.72;517258;1098;65235;-61
2020/12/09 05:10:50;;;;;;;21.43;12.67;;;;;;;-2.85;77.10;99370.94;517134;1098;65245;-62
2020/12/09 05:20:54;;;;;;;21.57;12.40;;;;;;;-2.90;77.27;99380.44;517476;1098;65160;-62
2020/12/09 05:30:58;;;;;;;22.20;13.60;;;;;;;-2.89;77.16;99373.56;517189;1093;65178;-63
2020/12/09 05:41:11;;;;;;;21.17;13.77;;;;;;;-2.87;77.01;99382.97;517017;1092;65579;-61
2020/12/09 05:51:14;;;;;;;28.37;14.27;;;;;;;-2.89;77.16;99363.28;517142;1093;65232;-62
2020/12/09 06:01:20;;;;;;;19.63;12.37;;;;;;;-2.88;77.36;99372.73;516521;1098;65153;-62
2020/12/09 06:11:27;;;;;;;22.17;13.55;;;;;;;-2.87;77.24;99377.83;517216;1098;65611;-61
2020/12/09 06:21:31;;;;;;;23.97;13.67;;;;;;;-2.79;77.32;99389.74;517234;1093;65153;-61
2020/12/09 06:31:35;;;;;;;19.03;12.67;;;;;;;-2.73;77.18;99395.66;516867;1093;65152;-62
2020/12/09 06:41:43;;;;;;;21.70;10.77;;;;;;;-2.69;77.25;99412.73;517053;1098;65195;-61
2020/12/09 06:51:47;;;;;;;22.23;13.43;;;;;;;-2.72;77.25;99405.06;516635;1098;65239;-63
2020/12/09 07:02:04;;;;;;;20.20;12.03;;;;;;;-2.73;77.15;99418.78;516663;1093;65182;-62
2020/12/09 07:12:08;;;;;;;22.97;13.07;;;;;;;-2.64;77.45;99437.55;516781;1098;65259;-62
2020/12/09 07:22:12;;;;;;;22.10;12.20;;;;;;;-2.79;76.82;99418.84;516929;1098;65236;-61
2020/12/09 07:32:19;;;;;;;21.87;13.00;;;;;;;-2.92;76.97;99438.72;517082;1093;65997;-61
2020/12/09 07:42:24;;;;;;;24.80;14.07;;;;;;;-2.98;77.23;99438.77;516490;1098;65305;-62
2020/12/09 07:52:29;;;;;;;19.60;11.77;;;;;;;-3.01;77.09;99446.52;516383;1098;65316;-63
2020/12/09 08:02:37;;;;;;;22.65;13.00;;;;;;;-2.97;77.35;99463.59;517285;1098;65503;-61
2020/12/09 08:12:43;;;;;;;28.57;14.77;;;;;;;-2.80;77.05;99460.84;507942;1093;10001682;-61
2020/12/09 08:22:58;;;;;;;29.27;16.00;;;;;;;-2.57;76.85;99458.01;516490;1093;65185;-63
2020/12/09 08:33:06;;;;;;;25.37;15.90;;;;;;;-2.36;76.53;99445.75;516426;1092;65157;-65
2020/12/09 08:43:11;;;;;;;24.50;14.47;;;;;;;-2.08;76.31;99447.92;517355;1098;65233;-64
2020/12/09 08:53:19;;;;;;;22.53;15.77;;;;;;;-1.65;75.57;99456.70;516094;1091;65214;-61
2020/12/09 09:03:25;;;;;;;24.10;14.83;;;;;;;-1.67;75.44;99455.02;516313;1098;65621;-60
2020/12/09 09:13:31;;;;;;;23.13;15.47;;;;;;;-1.81;75.63;99462.98;516526;1093;65451;-63
2020/12/09 09:23:35;;;;;;;27.83;15.93;;;;;;;-1.78;75.73;99462.93;516395;1098;65163;-60
2020/12/09 09:33:47;;;;;;;27.37;16.00;;;;;;;-1.53;74.88;99449.66;516426;1098;65621;-60
2020/12/09 09:43:53;;;;;;;28.67;16.80;;;;;;;-1.77;75.41;99452.63;516335;1093;65908;-61
2020/12/09 09:53:57;;;;;;;25.33;16.83;;;;;;;-1.58;75.63;99465.18;516483;1093;65198;-60
2020/12/09 10:04:06;;;;;;;29.60;17.80;;;;;;;-1.51;75.09;99460.78;516787;1093;65201;-57
2020/12/09 10:14:10;;;;;;;28.33;14.53;;;;;;;-1.33;74.95;99447.59;516768;1098;65156;-58
2020/12/09 10:24:14;;;;;;;25.40;14.15;;;;;;;-1.31;74.46;99434.70;516270;1094;65585;-60
2020/12/09 10:34:20;;;;;;;25.93;15.37;;;;;;;-1.38;75.23;99433.96;516404;1098;65179;-61
2020/12/09 10:44:24;;;;;;;31.83;16.40;;;;;;;-1.35;74.62;99430.46;516377;1098;65156;-61
2020/12/09 10:54:28;;;;;;;27.25;16.25;;;;;;;-1.39;74.82;99444.28;516357;1098;65176;-61
2020/12/09 11:04:47;;;;;;;32.00;19.73;;;;;;;-1.02;75.24;99447.05;516615;1098;65316;-62
2020/12/09 11:14:52;;;;;;;26.30;14.83;;;;;;;-1.19;74.26;99434.48;516695;1093;65260;-53
2020/12/09 11:24:56;;;;;;;30.10;17.00;;;;;;;-1.28;74.41;99447.52;516493;1093;65182;-56
2020/12/09 11:35:00;;;;;;;32.00;18.50;;;;;;;-1.12;75.14;99417.17;516206;1098;65587;-59
2020/12/09 11:45:06;;;;;;;30.47;16.17;;;;;;;-1.30;74.81;99428.67;516231;1098;65281;-60
2020/12/09 11:55:11;;;;;;;25.83;15.80;;;;;;;-1.41;74.46;99421.11;516393;1098;65585;-60
2020/12/09 12:05:20;;;;;;;32.00;17.20;;;;;;;-1.33;75.53;99423.55;515799;1098;65610;-58
2020/12/09 12:15:24;;;;;;;26.90;15.03;;;;;;;-1.33;74.84;99408.95;522115;1092;65419;-61
2020/12/09 12:25:28;;;;;;;29.05;16.85;;;;;;;-1.38;75.02;99422.80;516263;1093;65260;-60
2020/12/09 12:35:35;;;;;;;31.67;18.10;;;;;;;-1.49;75.05;99400.65;516448;1098;65265;-59
2020/12/09 12:45:39;;;;;;;25.15;13.75;;;;;;;-1.71;75.32;99411.31;516558;1098;65237;-59
2020/12/09 12:55:43;;;;;;;22.73;13.77;;;;;;;-1.70;76.03;99402.71;516754;1098;65796;-60
2020/12/09 13:05:47;;;;;;;26.20;16.90;;;;;;;-1.64;75.75;99403.50;516297;1091;65264;-61
2020/12/09 13:15:51;;;;;;;27.90;16.40;;;;;;;-1.79;75.96;99404.59;516913;1093;65173;-61
2020/12/09 13:25:55;;;;;;;27.77;16.70;;;;;;;-1.80;75.93;99410.62;516785;1098;65198;-61
2020/12/09 13:35:59;;;;;;;28.57;16.83;;;;;;;-1.97;76.25;99404.87;516927;1093;65619;-63
2020/12/09 13:46:03;;;;;;;23.77;16.53;;;;;;;-2.03;76.52;99394.66;517397;1093;65168;-62
2020/12/09 13:56:07;;;;;;;26.37;14.53;;;;;;;-2.08;76.67;99387.88;517033;1098;65156;-63
2020/12/09 14:06:11;;;;;;;25.87;14.73;;;;;;;-2.12;76.91;99390.52;508120;1098;10001349;-65
2020/12/09 14:16:15;;;;;;;27.75;16.10;;;;;;;-2.26;77.31;99393.28;516403;1098;65182;-60
2020/12/09 14:26:20;;;;;;;29.73;16.13;;;;;;;-2.26;77.27;99385.56;516664;1093;65644;-59
2020/12/09 14:36:28;;;;;;;30.53;18.80;;;;;;;-2.32;77.22;99389.95;517147;1098;65163;-63
2020/12/09 14:46:32;;;;;;;25.57;16.57;;;;;;;-2.40;77.47;99392.64;515883;1094;65159;-59
2020/12/09 14:56:36;;;;;;;31.05;17.20;;;;;;;-2.33;77.75;99389.12;528731;1091;65236;-62
2020/12/09 15:06:40;;;;;;;32.20;18.43;;;;;;;-2.34;77.98;99383.98;517235;1093;66338;-64
2020/12/09 15:16:44;;;;;;;37.07;20.50;;;;;;;-2.44;78.00;99396.14;517163;1098;65253;-62
2020/12/09 15:26:49;;;;;;;29.15;17.95;;;;;;;-2.46;78.11;99398.72;517282;1098;65635;-63
2020/12/09 15:36:56;;;;;;;34.55;18.75;;;;;;;-2.38;78.34;99402.91;517324;1098;65303;-64
2020/12/09 15:47:02;;;;;;;31.33;18.77;;;;;;;-2.43;78.38;99414.09;517197;1098;65561;-63
2020/12/09 15:57:06;;;;;;;35.33;18.47;;;;;;;-2.58;78.46;99420.31;516886;1098;65239;-61
2020/12/09 16:07:10;;;;;;;34.07;21.17;;;;;;;-2.69;78.72;99420.44;516158;1098;65233;-62
2020/12/09 16:17:15;;;;;;;33.75;17.15;;;;;;;-2.74;78.85;99408.52;508217;1093;10001764;-60
2020/12/09 16:27:29;;;;;;;35.13;20.43;;;;;;;-2.76;79.22;99416.27;522476;1098;65185;-67
2020/12/09 16:37:33;;;;;;;33.27;18.77;;;;;;;-2.71;79.21;99422.18;517092;1098;65157;-60
2020/12/09 16:47:38;;;;;;;34.10;18.37;;;;;;;-2.71;79.33;99423.92;516964;1093;65176;-62
2020/12/09 16:57:42;;;;;;;39.33;21.17;;;;;;;-2.78;79.04;99417.97;517229;1093;65533;-61
2020/12/09 17:07:46;;;;;;;36.73;21.07;;;;;;;-2.75;79.37;99415.39;517476;1098;65156;-60
2020/12/09 17:17:50;;;;;;;30.77;16.47;;;;;;;-3.02;79.45;99412.25;517026;1098;65283;-60
2020/12/09 17:27:55;;;;;;;35.80;19.90;;;;;;;-3.01;79.98;99413.95;517069;1093;65595;-64
2020/12/09 17:37:59;;;;;;;36.87;19.80;;;;;;;-2.97;80.23;99428.48;517398;1098;65256;-61
2020/12/09 17:48:04;;;;;;;29.20;16.77;;;;;;;-3.06;80.09;99412.30;517360;1093;65157;-61
2020/12/09 17:58:09;;;;;;;31.35;17.50;;;;;;;-3.16;80.69;99416.70;517096;1093;65182;-63
2020/12/09 18:08:14;;;;;;;31.43;18.10;;;;;;;-3.10;80.86;99391.80;517107;1093;65436;-60
2020/12/09 18:18:18;;;;;;;33.47;17.93;;;;;;;-3.09;80.79;99382.39;516956;1098;65230;-61
2020/12/09 18:28:22;;;;;;;38.83;18.70;;;;;;;-3.05;80.70;99381.47;517310;1098;65239;-60
2020/12/09 18:38:26;;;;;;;32.27;21.53;;;;;;;-3.04;80.79;99364.35;517022;1098;65157;-61
2020/12/09 18:48:30;;;;;;;30.20;18.05;;;;;;;-2.90;81.10;99353.87;517071;1093;66430;-62
2020/12/09 18:58:35;;;;;;;30.70;19.20;;;;;;;-2.79;80.82;99367.44;516813;1098;65570;-60
2020/12/09 19:08:39;;;;;;;38.17;20.23;;;;;;;-2.79;81.21;99375.16;517090;1098;65226;-56
2020/12/09 19:18:43;;;;;;;33.67;18.57;;;;;;;-2.82;81.27;99365.78;507913;1098;10001208;-63
2020/12/09 19:28:47;;;;;;;39.03;19.70;;;;;;;-2.76;80.99;99357.14;517035;1093;65267;-61
2020/12/09 19:38:51;;;;;;;27.10;15.27;;;;;;;-2.79;81.23;99358.90;516966;1093;65237;-59
2020/12/09 19:48:56;;;;;;;29.97;17.00;;;;;;;-2.88;81.12;99365.85;516839;1098;65617;-63
2020/12/09 19:59:00;;;;;;;28.87;16.53;;;;;;;-2.76;81.35;99384.55;520530;1098;65277;-61
2020/12/09 20:09:09;;;;;;;34.13;18.73;;;;;;;-2.73;81.44;99392.22;515891;1091;66466;-63
2020/12/09 20:19:13;;;;;;;27.60;17.03;;;;;;;-2.76;81.53;99392.27;517157;1098;65700;-61
2020/12/09 20:29:17;;;;;;;37.23;18.67;;;;;;;-2.72;81.64;99381.06;517187;1098;65159;-61
2020/12/09 20:39:22;;;;;;;30.37;17.57;;;;;;;-2.64;81.61;99376.68;516411;1098;65249;-61
2020/12/09 20:49:27;;;;;;;37.45;18.85;;;;;;;-2.59;81.77;99382.63;516345;1093;65534;-61
2020/12/09 20:59:31;;;;;;;37.10;19.43;;;;;;;-2.51;81.72;99394.51;508229;1098;10001851;-67
2020/12/09 21:09:35;;;;;;;31.40;17.85;;;;;;;-2.44;81.62;99396.97;520100;1098;65242;-64
2020/12/09 21:19:40;;;;;;;38.53;20.63;;;;;;;-2.23;81.63;99389.82;517054;1093;65153;-63
2020/12/09 21:29:45;;;;;;;33.00;18.90;;;;;;;-2.19;81.30;99386.35;517008;1093;65156;-60
2020/12/09 21:39:49;;;;;;;31.57;15.57;;;;;;;-2.30;81.11;99372.80;516953;1093;65239;-67
2020/12/09 21:49:53;;;;;;;35.83;17.93;;;;;;;-2.38;81.30;99372.05;517179;1093;65156;-66
2020/12/09 21:59:57;;;;;;;33.07;18.13;;;;;;;-2.37;81.66;99363.47;517327;1098;65466;-67
2020/12/09 22:10:01;;;;;;;31.87;17.13;;;;;;;-2.43;81.65;99360.09;516942;1093;65230;-66
2020/12/09 22:20:06;;;;;;;32.57;17.67;;;;;;;-2.49;81.74;99364.48;517369;1093;65588;-70
2020/12/09 22:30:10;;;;;;;30.03;16.10;;;;;;;-2.43;82.10;99351.55;517706;1093;65253;-71
2020/12/09 22:40:14;;;;;;;31.60;16.30;;;;;;;-2.53;81.57;99332.84;518659;1098;65156;-72
2020/12/09 22:50:19;;;;;;;29.95;15.90;;;;;;;-2.52;81.94;99331.97;516876;1098;65640;-68
2020/12/09 23:00:23;;;;;;;24.85;14.65;;;;;;;-2.55;81.88;99327.71;516859;1098;65163;-71
2020/12/09 23:10:27;;;;;;;30.50;14.97;;;;;;;-2.57;81.96;99331.17;516562;1098;65252;-69
2020/12/09 23:20:31;;;;;;;23.53;14.23;;;;;;;-2.60;82.00;99305.52;516697;1098;65239;-65
2020/12/09 23:30:37;;;;;;;31.37;18.20;;;;;;;-2.54;81.95;99295.98;517122;1098;65280;-73
2020/12/09 23:40:41;;;;;;;23.17;12.37;;;;;;;-2.44;81.98;99275.28;517657;1098;65586;-63
2020/12/09 23:50:46;;;;;;;29.93;16.30;;;;;;;-2.38;81.96;99280.30;517015;1098;65170;-63
